Time;durP1;ratioP1;P1;durP2;ratioP2;P2;SDS_P1;SDS_P2;PMS_P1;PMS_P2;Temp;Humidity;BMP_temperature;BMP_pressure;BME280_temperature;BME280_humidity;BME280_pressure;Samples;Min_cycle;Max_cycle;Signal;HPM_P1;HPM_P2
2023/01/21 00:01:07;;;;;;;44.45;22.83;;;;;;;;;;5096863;28;20031;-55
2023/01/21 00:03:33;;;;;;;42.05;24.77;;;;;;;;;;5096371;28;20626;-60
2023/01/21 00:05:58;;;;;;;35.25;23.17;;;;;;;;;;5096567;28;20017;-56
2023/01/21 00:08:24;;;;;;;34.42;22.55;;;;;;;;;;5098518;28;20463;-58
2023/01/21 00:10:49;;;;;;;38.40;22.58;;;;;;;;;;5097364;28;20024;-59
2023/01/21 00:13:15;;;;;;;34.63;22.13;;;;;;;;;;5097490;28;20461;-58
2023/01/21 00:15:40;;;;;;;36.38;23.02;;;;;;;;;;5096808;28;20366;-64
2023/01/21 00:18:06;;;;;;;36.20;22.13;;;;;;;;;;5096800;28;20120;-58
2023/01/21 00:20:32;;;;;;;30.15;19.60;;;;;;;;;;5096726;28;20062;-57
2023/01/21 00:22:57;;;;;;;26.45;18.40;;;;;;;;;;5096664;28;20012;-60
2023/01/21 00:25:22;;;;;;;30.95;19.10;;;;;;;;;;5095357;28;20107;-58
2023/01/21 00:27:48;;;;;;;27.95;19.23;;;;;;;;;;5094686;28;20016;-57
2023/01/21 00:30:13;;;;;;;31.20;18.83;;;;;;;;;;5096247;28;20071;-57
2023/01/21 00:32:39;;;;;;;27.40;17.25;;;;;;;;;;5096278;28;20024;-56
2023/01/21 00:35:05;;;;;;;27.73;18.80;;;;;;;;;;5096058;28;20023;-56
2023/01/21 00:37:30;;;;;;;32.38;19.58;;;;;;;;;;5094959;28;20090;-57
2023/01/21 00:39:55;;;;;;;30.42;19.80;;;;;;;;;;5094939;28;20028;-57
2023/01/21 00:42:21;;;;;;;33.55;20.30;;;;;;;;;;5094683;28;20020;-56
2023/01/21 00:44:47;;;;;;;30.50;18.40;;;;;;;;;;5094959;28;20119;-57
2023/01/21 00:47:13;;;;;;;31.65;19.48;;;;;;;;;;5095793;28;20039;-55
2023/01/21 00:49:38;;;;;;;30.63;19.00;;;;;;;;;;5094655;28;20453;-57
2023/01/21 00:52:05;;;;;;;25.33;17.27;;;;;;;;;;5093640;28;20033;-58
2023/01/21 00:54:31;;;;;;;26.45;17.40;;;;;;;;;;5096637;28;20052;-57
2023/01/21 00:56:57;;;;;;;29.23;16.60;;;;;;;;;;5096386;28;20058;-58
2023/01/21 00:59:23;;;;;;;27.90;16.45;;;;;;;;;;5094879;28;20020;-60
2023/01/21 01:01:48;;;;;;;27.00;17.13;;;;;;;;;;5095145;28;20397;-60
2023/01/21 01:04:14;;;;;;;30.30;17.50;;;;;;;;;;5094903;28;20055;-58
2023/01/21 01:06:39;;;;;;;31.90;18.20;;;;;;;;;;5096680;28;20020;-60
2023/01/21 01:09:05;;;;;;;27.52;18.02;;;;;;;;;;5095351;28;20123;-56
2023/01/21 01:11:30;;;;;;;31.02;18.23;;;;;;;;;;5096778;28;20032;-57
2023/01/21 01:13:57;;;;;;;29.65;19.00;;;;;;;;;;5096877;28;20134;-64
2023/01/21 01:16:23;;;;;;;28.35;18.77;;;;;;;;;;5097292;28;20020;-61
2023/01/21 01:18:48;;;;;;;29.05;17.23;;;;;;;;;;5095933;28;20019;-58
2023/01/21 01:21:16;;;;;;;20.65;11.57;;;;;;;;;;5098659;28;20032;-64
2023/01/21 01:23:42;;;;;;;16.30;11.27;;;;;;;;;;5096758;28;20034;-59
2023/01/21 01:26:09;;;;;;;21.83;12.95;;;;;;;;;;5097278;28;20456;-56
2023/01/21 01:28:35;;;;;;;18.10;12.63;;;;;;;;;;5097596;28;20020;-58
2023/01/21 01:31:03;;;;;;;19.58;13.25;;;;;;;;;;5097223;28;20016;-61
2023/01/21 01:33:28;;;;;;;17.30;11.90;;;;;;;;;;5097045;28;20023;-59
2023/01/21 01:35:53;;;;;;;18.38;10.77;;;;;;;;;;5093873;28;20024;-57
2023/01/21 01:38:20;;;;;;;18.48;10.68;;;;;;;;;;5093541;28;20074;-57
2023/01/21 01:40:47;;;;;;;16.05;10.55;;;;;;;;;;5095265;28;20073;-58
2023/01/21 01:43:17;;;;;;;14.93;9.75;;;;;;;;;;5094526;28;20019;-56
2023/01/21 01:45:42;;;;;;;19.60;10.93;;;;;;;;;;5093592;28;20020;-57
2023/01/21 01:48:09;;;;;;;16.00;11.18;;;;;;;;;;5095013;28;20031;-63
2023/01/21 01:50:36;;;;;;;16.17;9.80;;;;;;;;;;5095570;28;20042;-58
2023/01/21 01:53:02;;;;;;;14.55;10.00;;;;;;;;;;5094886;28;20054;-58
2023/01/21 01:55:29;;;;;;;16.02;10.60;;;;;;;;;;5095059;28;20020;-57
2023/01/21 01:57:54;;;;;;;13.07;9.68;;;;;;;;;;5093069;28;20380;-57
2023/01/21 02:00:20;;;;;;;18.58;11.38;;;;;;;;;;5093244;28;20119;-56
2023/01/21 02:03:43;;;;;;;15.63;11.48;;;;;;;;;;5095627;28;20079;-57
2023/01/21 02:05:36;;;;;;;22.00;12.52;;;;;;;;;;5095516;28;20028;-57
2023/01/21 02:08:01;;;;;;;24.50;12.43;;;;;;;;;;5092752;28;20179;-58
2023/01/21 02:10:26;;;;;;;19.70;13.15;;;;;;;;;;5092398;28;20115;-58
2023/01/21 02:12:52;;;;;;;16.45;12.20;;;;;;;;;;5092723;28;20111;-57
2023/01/21 02:15:18;;;;;;;19.38;11.00;;;;;;;;;;5093748;28;20052;-58
2023/01/21 02:18:04;;;;;;;19.75;11.70;;;;;;;;;;5094171;28;20008;-57
2023/01/21 02:20:57;;;;;;;22.23;11.70;;;;;;;;;;5079014;28;20036;-65
2023/01/21 02:23:40;;;;;;;20.17;13.15;;;;;;;;;;5097618;28;20069;-64
2023/01/21 02:26:08;;;;;;;14.25;9.85;;;;;;;;;;5096489;28;20028;-58
2023/01/21 02:28:52;;;;;;;16.23;10.70;;;;;;;;;;5095906;28;20111;-58
2023/01/21 02:31:36;;;;;;;15.95;10.77;;;;;;;;;;5094584;28;20008;-57
2023/01/21 02:34:05;;;;;;;17.05;10.95;;;;;;;;;;5094322;28;20016;-59
2023/01/21 02:36:34;;;;;;;21.73;12.45;;;;;;;;;;5094794;28;20544;-59
2023/01/21 02:39:05;;;;;;;14.90;10.85;;;;;;;;;;5095087;28;20536;-59
2023/01/21 02:41:37;;;;;;;19.33;12.55;;;;;;;;;;5094222;28;20070;-57
2023/01/21 02:44:09;;;;;;;20.73;11.82;;;;;;;;;;5092562;28;20020;-56
2023/01/21 02:46:43;;;;;;;18.08;12.00;;;;;;;;;;5092790;28;20373;-57
2023/01/21 02:49:18;;;;;;;17.17;10.63;;;;;;;;;;5092317;28;20028;-58
2023/01/21 02:51:46;;;;;;;26.70;13.35;;;;;;;;;;5095010;28;20024;-58
2023/01/21 02:54:13;;;;;;;28.15;15.82;;;;;;;;;;5095414;28;20020;-56
2023/01/21 02:56:38;;;;;;;27.38;16.05;;;;;;;;;;5093569;28;20477;-58
2023/01/21 02:59:04;;;;;;;23.35;14.55;;;;;;;;;;5093214;28;20027;-57
2023/01/21 03:01:42;;;;;;;21.73;14.60;;;;;;;;;;5094942;28;20468;-57
2023/01/21 03:04:27;;;;;;;23.70;15.35;;;;;;;;;;5091954;28;20150;-58
2023/01/21 03:07:03;;;;;;;23.70;14.80;;;;;;;;;;5093247;28;20093;-58
2023/01/21 03:09:30;;;;;;;22.25;14.05;;;;;;;;;;5093541;28;20081;-57
2023/01/21 03:11:59;;;;;;;17.75;12.35;;;;;;;;;;5092146;28;20019;-58
2023/01/21 03:17:30;;;;;;;;;;;;;;;;;;5093743;28;20030;-56
2023/01/21 03:20:00;;;;;;;24.20;13.93;;;;;;;;;;5093228;28;19908;-57
2023/01/21 03:22:28;;;;;;;24.45;15.50;;;;;;;;;;5092306;28;20023;-57
2023/01/21 03:24:56;;;;;;;24.88;15.38;;;;;;;;;;5093579;28;20496;-57
2023/01/21 03:27:22;;;;;;;27.60;15.23;;;;;;;;;;5092322;28;20020;-56
2023/01/21 03:29:50;;;;;;;23.40;15.10;;;;;;;;;;5093098;28;20043;-57
2023/01/21 03:32:17;;;;;;;22.40;14.63;;;;;;;;;;5093217;28;20069;-58
2023/01/21 03:34:44;;;;;;;23.70;14.68;;;;;;;;;;5093362;28;20024;-56
2023/01/21 03:37:13;;;;;;;25.23;15.15;;;;;;;;;;5092821;28;20024;-56
2023/01/21 03:39:46;;;;;;;28.88;16.02;;;;;;;;;;5092918;28;20066;-61
2023/01/21 03:42:12;;;;;;;23.88;15.10;;;;;;;;;;5093481;28;20052;-56
2023/01/21 03:44:38;;;;;;;23.77;15.98;;;;;;;;;;5091769;28;20018;-60
2023/01/21 03:47:19;;;;;;;20.13;12.45;;;;;;;;;;5093019;28;20443;-58
2023/01/21 03:50:06;;;;;;;19.98;12.50;;;;;;;;;;5092000;28;20035;-58
2023/01/21 03:52:31;;;;;;;22.70;12.68;;;;;;;;;;5092006;28;20047;-57
2023/01/21 03:54:57;;;;;;;20.63;13.70;;;;;;;;;;5093827;28;20354;-59
2023/01/21 03:57:23;;;;;;;19.58;12.00;;;;;;;;;;5092635;28;20058;-58
2023/01/21 03:59:48;;;;;;;21.13;12.75;;;;;;;;;;5093222;28;20020;-59
2023/01/21 04:02:18;;;;;;;21.50;14.13;;;;;;;;;;5092077;28;20020;-63
2023/01/21 04:04:45;;;;;;;21.77;14.38;;;;;;;;;;5093194;28;20040;-58
2023/01/21 04:07:10;;;;;;;20.77;13.95;;;;;;;;;;5090514;28;20016;-57
2023/01/21 04:09:36;;;;;;;29.67;15.00;;;;;;;;;;5091147;28;20396;-56
2023/01/21 04:12:01;;;;;;;26.65;15.80;;;;;;;;;;5091600;28;20059;-62
2023/01/21 04:14:26;;;;;;;35.38;15.07;;;;;;;;;;5092498;28;20018;-57
2023/01/21 04:16:56;;;;;;;25.88;15.23;;;;;;;;;;5092748;28;20484;-58
2023/01/21 04:19:22;;;;;;;26.15;16.02;;;;;;;;;;5091489;28;20032;-61
2023/01/21 04:21:48;;;;;;;24.58;13.98;;;;;;;;;;5091151;28;20111;-57
2023/01/21 04:24:13;;;;;;;27.73;14.45;;;;;;;;;;5092988;28;20035;-58
2023/01/21 04:26:39;;;;;;;29.38;13.57;;;;;;;;;;5096505;28;20024;-58
2023/01/21 04:29:04;;;;;;;27.98;14.32;;;;;;;;;;5096386;28;20031;-58
2023/01/21 04:31:30;;;;;;;25.80;14.60;;;;;;;;;;5096149;28;20055;-58
2023/01/21 04:33:55;;;;;;;30.30;15.55;;;;;;;;;;5094706;28;20060;-58
2023/01/21 04:36:21;;;;;;;30.20;15.55;;;;;;;;;;5094702;28;20027;-55
2023/01/21 04:38:47;;;;;;;25.80;14.07;;;;;;;;;;5096219;28;20385;-58
2023/01/21 04:41:12;;;;;;;28.40;15.85;;;;;;;;;;5094569;28;20020;-57
2023/01/21 04:43:38;;;;;;;30.52;16.77;;;;;;;;;;5096047;28;20048;-57
2023/01/21 04:46:03;;;;;;;31.40;16.17;;;;;;;;;;5094396;28;20020;-57
2023/01/21 04:48:29;;;;;;;24.23;14.13;;;;;;;;;;5094669;28;20024;-59
2023/01/21 04:50:54;;;;;;;25.73;15.07;;;;;;;;;;5096582;28;20020;-57
2023/01/21 04:53:20;;;;;;;23.00;12.55;;;;;;;;;;5094912;28;20016;-59
2023/01/21 04:55:45;;;;;;;23.27;13.00;;;;;;;;;;5094615;28;20027;-58
2023/01/21 04:58:11;;;;;;;25.20;13.20;;;;;;;;;;5095924;28;20016;-57
2023/01/21 05:00:36;;;;;;;24.00;13.65;;;;;;;;;;5094445;28;20020;-58
2023/01/21 05:03:01;;;;;;;27.67;15.38;;;;;;;;;;5094078;28;20109;-56
2023/01/21 05:05:27;;;;;;;24.08;15.13;;;;;;;;;;5094331;28;20546;-57
2023/01/21 05:07:53;;;;;;;22.35;13.93;;;;;;;;;;5094337;28;20020;-56
2023/01/21 05:10:18;;;;;;;24.45;14.45;;;;;;;;;;5095573;28;20028;-57
2023/01/21 05:12:44;;;;;;;25.65;13.75;;;;;;;;;;5095801;28;20522;-57
2023/01/21 05:15:09;;;;;;;24.67;13.85;;;;;;;;;;5095038;28;20427;-56
2023/01/21 05:17:35;;;;;;;27.17;14.50;;;;;;;;;;5095293;28;20087;-57
2023/01/21 05:20:01;;;;;;;28.35;15.70;;;;;;;;;;5093775;28;20016;-62
2023/01/21 05:22:26;;;;;;;27.40;16.00;;;;;;;;;;5094838;28;20024;-57
2023/01/21 05:24:51;;;;;;;29.35;16.20;;;;;;;;;;5094009;28;20061;-59
2023/01/21 05:27:18;;;;;;;30.60;16.40;;;;;;;;;;5093519;28;20016;-57
2023/01/21 05:29:44;;;;;;;24.58;15.60;;;;;;;;;;5094813;28;20030;-57
2023/01/21 05:32:09;;;;;;;30.38;16.83;;;;;;;;;;5094244;28;20020;-58
2023/01/21 05:34:35;;;;;;;24.05;15.25;;;;;;;;;;5093693;28;20016;-57
2023/01/21 05:37:00;;;;;;;31.38;18.10;;;;;;;;;;5092491;28;20111;-57
2023/01/21 05:39:26;;;;;;;31.33;18.48;;;;;;;;;;5096242;28;20016;-58
2023/01/21 05:41:51;;;;;;;31.30;18.95;;;;;;;;;;5094982;28;20020;-59
2023/01/21 05:44:16;;;;;;;31.15;18.13;;;;;;;;;;5094887;28;20487;-58
2023/01/21 05:46:42;;;;;;;34.35;17.27;;;;;;;;;;5095216;28;20028;-58
2023/01/21 05:49:07;;;;;;;32.47;18.98;;;;;;;;;;5093381;28;20492;-62
2023/01/21 05:51:33;;;;;;;35.83;18.85;;;;;;;;;;5095998;28;20016;-57
2023/01/21 05:53:58;;;;;;;32.88;18.63;;;;;;;;;;5097284;28;20051;-60
2023/01/21 05:56:23;;;;;;;36.88;17.92;;;;;;;;;;5095906;28;20418;-56
2023/01/21 05:58:49;;;;;;;31.63;17.98;;;;;;;;;;5094431;28;20024;-59
2023/01/21 06:01:14;;;;;;;37.78;18.70;;;;;;;;;;5094173;28;20423;-58
2023/01/21 06:03:40;;;;;;;40.45;19.80;;;;;;;;;;5093156;28;20048;-58
2023/01/21 06:06:05;;;;;;;34.50;20.17;;;;;;;;;;5092834;28;20016;-56
2023/01/21 06:08:31;;;;;;;39.05;20.52;;;;;;;;;;5093141;28;20018;-59
2023/01/21 06:10:56;;;;;;;35.20;19.52;;;;;;;;;;5092610;28;20016;-57
2023/01/21 06:13:22;;;;;;;37.55;20.00;;;;;;;;;;5094910;28;20020;-57
2023/01/21 06:15:47;;;;;;;36.13;20.23;;;;;;;;;;5094133;28;20012;-60
2023/01/21 06:18:13;;;;;;;34.55;19.48;;;;;;;;;;5092938;28;20023;-58
2023/01/21 06:20:39;;;;;;;33.30;18.52;;;;;;;;;;5094105;28;20023;-64
2023/01/21 06:23:05;;;;;;;35.28;19.60;;;;;;;;;;5093490;28;20023;-58
2023/01/21 06:25:31;;;;;;;32.42;17.67;;;;;;;;;;5092843;28;20016;-58
2023/01/21 06:27:56;;;;;;;31.77;17.40;;;;;;;;;;5092845;28;20480;-58
2023/01/21 06:30:23;;;;;;;32.65;19.00;;;;;;;;;;5093697;28;20059;-58
2023/01/21 06:32:48;;;;;;;40.03;20.35;;;;;;;;;;5094231;28;20098;-57
2023/01/21 06:35:14;;;;;;;37.40;19.23;;;;;;;;;;5094744;28;20052;-59
2023/01/21 06:37:40;;;;;;;36.17;20.08;;;;;;;;;;5095555;28;20034;-65
2023/01/21 06:40:07;;;;;;;29.98;18.38;;;;;;;;;;5095068;28;20372;-59
2023/01/21 06:42:32;;;;;;;34.38;18.73;;;;;;;;;;5094455;28;20038;-71
2023/01/21 06:44:58;;;;;;;32.22;19.85;;;;;;;;;;5092315;28;20457;-57
2023/01/21 06:47:23;;;;;;;32.28;18.98;;;;;;;;;;5093863;28;20419;-57
2023/01/21 06:49:50;;;;;;;30.77;18.25;;;;;;;;;;5093124;28;20035;-57
2023/01/21 06:52:15;;;;;;;35.58;20.30;;;;;;;;;;5092382;28;20012;-58
2023/01/21 06:54:42;;;;;;;33.58;19.33;;;;;;;;;;5093245;28;20516;-56
2023/01/21 06:57:07;;;;;;;31.48;17.85;;;;;;;;;;5093477;28;20062;-58
2023/01/21 06:59:33;;;;;;;38.97;21.70;;;;;;;;;;5093169;28;20020;-58
2023/01/21 07:01:58;;;;;;;39.97;21.85;;;;;;;;;;5093908;28;20023;-56
2023/01/21 07:04:25;;;;;;;33.28;19.85;;;;;;;;;;5091712;28;20082;-61
2023/01/21 07:06:50;;;;;;;32.97;19.83;;;;;;;;;;5094086;28;20024;-56
2023/01/21 07:09:16;;;;;;;33.83;18.88;;;;;;;;;;5094968;28;20036;-57
2023/01/21 07:11:41;;;;;;;33.92;19.50;;;;;;;;;;5094450;28;20112;-61
2023/01/21 07:14:07;;;;;;;33.75;20.35;;;;;;;;;;5096213;28;20076;-56
2023/01/21 07:16:33;;;;;;;35.33;20.60;;;;;;;;;;5096218;28;20032;-57
2023/01/21 07:18:58;;;;;;;34.15;20.52;;;;;;;;;;5094047;28;20027;-57
2023/01/21 07:21:24;;;;;;;39.15;21.25;;;;;;;;;;5095017;28;20024;-56
2023/01/21 07:23:52;;;;;;;30.92;18.25;;;;;;;;;;5095752;28;20070;-57
2023/01/21 07:26:18;;;;;;;34.88;19.27;;;;;;;;;;5093080;28;20020;-64
2023/01/21 07:28:43;;;;;;;32.92;19.35;;;;;;;;;;5091625;28;20026;-58
2023/01/21 07:31:09;;;;;;;34.70;17.75;;;;;;;;;;5091755;28;20106;-62
2023/01/21 07:33:34;;;;;;;33.70;17.92;;;;;;;;;;5093595;28;20398;-59
2023/01/21 07:35:59;;;;;;;27.17;17.17;;;;;;;;;;5092115;28;20020;-57
2023/01/21 07:38:26;;;;;;;28.85;18.50;;;;;;;;;;5091788;28;20032;-59
2023/01/21 07:40:51;;;;;;;28.25;18.08;;;;;;;;;;5091603;28;20024;-60
2023/01/21 07:43:17;;;;;;;22.67;15.30;;;;;;;;;;5091531;28;20031;-57
2023/01/21 07:45:42;;;;;;;18.20;13.15;;;;;;;;;;5091601;28;20182;-58
2023/01/21 07:48:08;;;;;;;21.85;14.07;;;;;;;;;;5092643;28;20537;-58
2023/01/21 07:50:34;;;;;;;18.80;13.32;;;;;;;;;;5092961;28;20039;-58
2023/01/21 07:52:59;;;;;;;21.15;14.43;;;;;;;;;;5092856;28;20473;-58
2023/01/21 07:55:25;;;;;;;21.40;14.35;;;;;;;;;;5093529;28;20028;-57
2023/01/21 07:57:50;;;;;;;21.17;14.20;;;;;;;;;;5092814;28;20020;-57
2023/01/21 08:00:16;;;;;;;19.95;14.32;;;;;;;;;;5093342;28;20495;-56
2023/01/21 08:02:41;;;;;;;23.42;13.75;;;;;;;;;;5096820;28;20487;-56
2023/01/21 08:05:08;;;;;;;20.45;13.65;;;;;;;;;;5095345;28;20012;-59
2023/01/21 08:07:34;;;;;;;17.15;13.00;;;;;;;;;;5095512;28;20039;-58
2023/01/21 08:09:59;;;;;;;25.63;15.38;;;;;;;;;;5096671;28;20476;-58
2023/01/21 08:12:25;;;;;;;19.23;11.60;;;;;;;;;;5097134;28;20020;-58
2023/01/21 08:14:50;;;;;;;21.52;13.20;;;;;;;;;;5097627;28;20023;-57
2023/01/21 08:17:16;;;;;;;17.15;11.75;;;;;;;;;;5095698;28;20023;-63
2023/01/21 08:19:42;;;;;;;17.42;12.07;;;;;;;;;;5096939;28;20051;-58
2023/01/21 08:22:08;;;;;;;18.70;12.27;;;;;;;;;;5096373;28;20059;-57
2023/01/21 08:24:34;;;;;;;23.10;14.40;;;;;;;;;;5097118;28;20406;-58
2023/01/21 08:27:00;;;;;;;20.88;13.25;;;;;;;;;;5097271;28;20099;-58
2023/01/21 08:29:26;;;;;;;20.98;13.02;;;;;;;;;;5095380;28;20031;-59
2023/01/21 08:31:51;;;;;;;18.98;12.75;;;;;;;;;;5095600;28;20020;-58
2023/01/21 08:34:18;;;;;;;18.13;12.52;;;;;;;;;;5096654;28;20461;-58
2023/01/21 08:36:43;;;;;;;18.23;12.95;;;;;;;;;;5094715;28;20016;-58
2023/01/21 08:39:11;;;;;;;25.40;15.98;;;;;;;;;;5094882;28;20415;-58
2023/01/21 08:41:39;;;;;;;20.55;13.93;;;;;;;;;;5094699;28;20064;-59
2023/01/21 08:44:05;;;;;;;22.08;14.02;;;;;;;;;;5096347;28;20059;-58
2023/01/21 08:46:30;;;;;;;20.75;15.48;;;;;;;;;;5096616;28;20024;-59
2023/01/21 08:48:55;;;;;;;22.38;15.80;;;;;;;;;;5095737;28;20112;-57
2023/01/21 08:51:21;;;;;;;27.33;17.73;;;;;;;;;;5095560;28;20012;-59
2023/01/21 08:53:47;;;;;;;21.20;15.57;;;;;;;;;;5095387;28;20022;-59
2023/01/21 08:56:13;;;;;;;26.33;13.68;;;;;;;;;;5097561;28;20027;-64
2023/01/21 08:58:38;;;;;;;23.58;15.57;;;;;;;;;;5098311;28;20016;-68
2023/01/21 09:01:08;;;;;;;22.92;16.52;;;;;;;;;;5098162;28;20077;-57
2023/01/21 09:03:33;;;;;;;24.63;14.65;;;;;;;;;;5095939;28;20596;-58
2023/01/21 09:05:59;;;;;;;21.65;15.77;;;;;;;;;;5096226;28;20036;-58
2023/01/21 09:08:26;;;;;;;28.05;17.70;;;;;;;;;;5095909;28;20461;-58
2023/01/21 09:11:01;;;;;;;21.90;15.43;;;;;;;;;;5093671;28;20024;-58
2023/01/21 09:13:31;;;;;;;21.27;15.30;;;;;;;;;;5093869;28;20020;-59
2023/01/21 09:15:57;;;;;;;23.48;15.82;;;;;;;;;;5095481;28;20024;-58
2023/01/21 09:18:22;;;;;;;24.67;16.98;;;;;;;;;;5095008;28;20586;-63
2023/01/21 09:20:48;;;;;;;21.23;14.25;;;;;;;;;;5093916;28;20024;-57
2023/01/21 09:23:26;;;;;;;21.30;14.73;;;;;;;;;;5096883;28;20095;-64
2023/01/21 09:26:12;;;;;;;18.88;13.15;;;;;;;;;;5093653;28;20396;-57
2023/01/21 09:28:37;;;;;;;;;;;;;;;;;;5092785;28;20036;-57
2023/01/21 09:31:04;;;;;;;22.17;14.57;;;;;;;;;;5094438;28;19912;-59
2023/01/21 09:33:31;;;;;;;23.58;14.25;;;;;;;;;;5094668;28;20047;-58
2023/01/21 09:35:58;;;;;;;20.88;14.32;;;;;;;;;;5093140;28;20020;-58
2023/01/21 09:38:24;;;;;;;20.85;14.45;;;;;;;;;;5093247;28;20076;-58
2023/01/21 09:40:50;;;;;;;19.25;14.05;;;;;;;;;;5095553;28;20090;-58
2023/01/21 09:43:20;;;;;;;18.02;12.23;;;;;;;;;;5093630;28;20524;-58
2023/01/21 09:45:48;;;;;;;17.17;12.35;;;;;;;;;;5093652;28;20506;-58
2023/01/21 09:48:23;;;;;;;20.08;12.88;;;;;;;;;;5093431;28;20028;-57
2023/01/21 09:50:49;;;;;;;22.02;13.07;;;;;;;;;;5094437;28;20028;-58
2023/01/21 09:53:26;;;;;;;21.20;11.77;;;;;;;;;;5094547;28;20118;-57
2023/01/21 09:55:52;;;;;;;19.73;11.50;;;;;;;;;;5094880;28;20016;-57
2023/01/21 09:58:29;;;;;;;15.90;10.82;;;;;;;;;;5093263;28;20016;-58
2023/01/21 10:00:58;;;;;;;18.63;10.80;;;;;;;;;;5094547;28;20030;-57
2023/01/21 10:03:30;;;;;;;16.45;11.77;;;;;;;;;;5094828;28;20052;-58
2023/01/21 10:05:58;;;;;;;19.25;12.85;;;;;;;;;;5094412;28;20095;-58
2023/01/21 10:08:29;;;;;;;20.27;12.85;;;;;;;;;;5094497;28;20023;-60
2023/01/21 10:10:55;;;;;;;14.70;11.07;;;;;;;;;;5094561;28;20024;-59
2023/01/21 10:13:40;;;;;;;16.25;11.82;;;;;;;;;;5093695;28;20016;-59
2023/01/21 10:16:24;;;;;;;16.25;11.32;;;;;;;;;;5093898;28;20023;-58
2023/01/21 10:18:50;;;;;;;16.73;11.55;;;;;;;;;;5093358;28;20069;-59
2023/01/21 10:21:27;;;;;;;20.52;12.25;;;;;;;;;;5092510;28;20088;-57
2023/01/21 10:23:56;;;;;;;19.10;11.68;;;;;;;;;;5093850;28;20027;-60
2023/01/21 10:26:22;;;;;;;19.38;12.40;;;;;;;;;;5092713;28;20016;-55
2023/01/21 10:28:50;;;;;;;19.13;10.77;;;;;;;;;;5093530;28;20027;-58
2023/01/21 10:31:22;;;;;;;15.90;10.77;;;;;;;;;;5092323;28;20378;-58
2023/01/21 10:33:47;;;;;;;11.93;9.23;;;;;;;;;;5093744;28;20024;-58
2023/01/21 10:36:22;;;;;;;14.00;9.55;;;;;;;;;;5092468;28;20076;-57
2023/01/21 10:38:56;;;;;;;12.60;9.02;;;;;;;;;;5093693;28;20020;-60
2023/01/21 10:41:27;;;;;;;16.40;10.45;;;;;;;;;;5092912;28;20028;-64
2023/01/21 10:44:11;;;;;;;15.77;10.73;;;;;;;;;;5092810;28;20050;-65
2023/01/21 10:46:59;;;;;;;15.35;10.68;;;;;;;;;;5095456;28;20024;-61
2023/01/21 10:49:24;;;;;;;13.23;9.60;;;;;;;;;;5081562;28;20041;-57
2023/01/21 10:51:55;;;;;;;14.60;10.20;;;;;;;;;;5093468;28;20016;-58
2023/01/21 10:54:26;;;;;;;18.45;11.38;;;;;;;;;;5093396;28;20477;-58
2023/01/21 10:57:07;;;;;;;15.57;10.68;;;;;;;;;;5093258;28;20027;-59
2023/01/21 10:59:35;;;;;;;19.48;11.07;;;;;;;;;;5093107;28;20467;-58
2023/01/21 11:02:11;;;;;;;17.40;10.52;;;;;;;;;;5092085;28;20457;-59
2023/01/21 11:04:39;;;;;;;17.95;11.55;;;;;;;;;;5093140;28;20412;-58
2023/01/21 11:07:06;;;;;;;17.25;10.70;;;;;;;;;;5092725;28;20016;-58
2023/01/21 11:09:33;;;;;;;14.45;10.18;;;;;;;;;;5092436;28;20161;-57
2023/01/21 11:11:59;;;;;;;17.77;11.88;;;;;;;;;;5092517;28;20031;-59
2023/01/21 11:14:25;;;;;;;19.05;11.48;;;;;;;;;;5093336;28;20392;-61
2023/01/21 11:16:51;;;;;;;16.52;10.30;;;;;;;;;;5094242;28;20023;-59
2023/01/21 11:19:21;;;;;;;16.67;11.15;;;;;;;;;;5095337;28;20524;-60
2023/01/21 11:22:05;;;;;;;19.35;11.70;;;;;;;;;;5095392;28;20031;-57
2023/01/21 11:24:40;;;;;;;20.58;12.43;;;;;;;;;;5094975;28;20035;-59
2023/01/21 11:27:05;;;;;;;17.95;11.80;;;;;;;;;;5093463;28;20035;-62
2023/01/21 11:29:38;;;;;;;18.65;12.45;;;;;;;;;;5095312;28;20039;-60
2023/01/21 11:32:11;;;;;;;22.90;11.80;;;;;;;;;;5092663;28;20024;-60
2023/01/21 11:34:42;;;;;;;19.55;12.43;;;;;;;;;;5091949;28;20062;-60
2023/01/21 11:37:17;;;;;;;22.80;12.57;;;;;;;;;;5092969;28;20066;-58
2023/01/21 11:39:50;;;;;;;18.27;10.30;;;;;;;;;;5093635;28;20035;-59
2023/01/21 11:42:17;;;;;;;16.27;10.43;;;;;;;;;;5091204;28;20127;-58
2023/01/21 11:44:49;;;;;;;18.33;11.10;;;;;;;;;;5095069;28;20027;-58
2023/01/21 11:47:27;;;;;;;17.65;11.23;;;;;;;;;;5093153;28;20119;-58
2023/01/21 11:49:52;;;;;;;12.88;8.93;;;;;;;;;;5095638;28;20032;-57
2023/01/21 11:52:19;;;;;;;17.10;11.00;;;;;;;;;;5094204;28;20028;-59
2023/01/21 11:54:45;;;;;;;19.25;10.68;;;;;;;;;;5094009;28;20024;-57
2023/01/21 11:57:19;;;;;;;13.38;9.35;;;;;;;;;;5094533;28;20020;-58
2023/01/21 11:59:46;;;;;;;13.15;9.85;;;;;;;;;;5093669;28;20038;-58
2023/01/21 12:02:24;;;;;;;18.38;10.00;;;;;;;;;;5091867;28;20027;-58
2023/01/21 12:04:58;;;;;;;16.63;10.05;;;;;;;;;;5092088;28;20040;-57
2023/01/21 12:07:26;;;;;;;14.02;9.40;;;;;;;;;;5091730;28;20023;-59
2023/01/21 12:10:10;;;;;;;14.63;9.70;;;;;;;;;;5092823;28;20056;-58
2023/01/21 12:12:44;;;;;;;18.85;10.07;;;;;;;;;;5093112;28;20026;-60
2023/01/21 12:15:19;;;;;;;14.15;10.48;;;;;;;;;;5094422;28;20021;-58
2023/01/21 12:17:44;;;;;;;;;;;;;;;;;;5096321;28;20534;-67
2023/01/21 12:20:10;;;;;;;18.08;10.85;;;;;;;;;;5093902;28;19919;-58
2023/01/21 12:22:54;;;;;;;18.98;10.70;;;;;;;;;;5092998;28;20016;-59
2023/01/21 12:25:52;;;;;;;18.08;10.18;;;;;;;;;;5091090;28;20455;-58
2023/01/21 12:28:29;;;;;;;16.33;10.50;;;;;;;;;;5058222;28;20036;-57
2023/01/21 12:30:54;;;;;;;20.73;12.50;;;;;;;;;;5092348;28;20465;-58
2023/01/21 12:33:29;;;;;;;20.02;11.85;;;;;;;;;;5091810;28;20575;-57
2023/01/21 12:35:57;;;;;;;19.38;10.77;;;;;;;;;;5092689;28;20027;-56
2023/01/21 12:38:42;;;;;;;20.63;10.57;;;;;;;;;;5090967;28;20031;-56
2023/01/21 12:41:08;;;;;;;;;;;;;;;;;;5092128;28;20465;-59
2023/01/21 12:43:41;;;;;;;21.10;12.38;;;;;;;;;;5091023;28;19904;-58
2023/01/21 12:46:09;;;;;;;21.55;10.63;;;;;;;;;;5093873;28;20024;-60
2023/01/21 12:48:38;;;;;;;15.32;9.75;;;;;;;;;;5094560;28;20035;-57
2023/01/21 12:51:09;;;;;;;17.60;10.80;;;;;;;;;;5095516;28;20031;-58
2023/01/21 12:53:38;;;;;;;17.33;10.57;;;;;;;;;;5098676;28;20484;-58
2023/01/21 12:56:14;;;;;;;17.35;10.27;;;;;;;;;;5095638;28;20015;-59
2023/01/21 12:58:44;;;;;;;15.00;9.40;;;;;;;;;;5096384;28;20020;-56
2023/01/21 13:01:12;;;;;;;14.90;9.00;;;;;;;;;;5096341;28;20020;-59
2023/01/21 13:03:45;;;;;;;17.33;9.65;;;;;;;;;;5095209;28;20048;-61
2023/01/21 13:06:10;;;;;;;15.95;10.32;;;;;;;;;;5098084;28;20008;-59
2023/01/21 13:08:43;;;;;;;15.48;10.05;;;;;;;;;;5097980;28;20027;-58
2023/01/21 13:11:13;;;;;;;20.95;11.10;;;;;;;;;;5096813;28;20039;-57
2023/01/21 13:13:46;;;;;;;15.13;10.32;;;;;;;;;;5096397;28;20099;-59
2023/01/21 13:16:12;;;;;;;18.55;11.02;;;;;;;;;;5094492;28;20024;-58
2023/01/21 13:18:38;;;;;;;18.30;11.05;;;;;;;;;;5095088;28;20111;-56
2023/01/21 13:21:03;;;;;;;18.13;11.77;;;;;;;;;;5095431;28;20357;-59
2023/01/21 13:23:32;;;;;;;19.45;11.88;;;;;;;;;;5095795;28;20020;-60
2023/01/21 13:26:24;;;;;;;17.35;10.30;;;;;;;;;;5097211;28;20495;-59
2023/01/21 13:28:55;;;;;;;19.20;10.65;;;;;;;;;;5063254;28;20032;-62
2023/01/21 13:31:30;;;;;;;16.15;10.02;;;;;;;;;;5095500;28;20023;-58
2023/01/21 13:33:56;;;;;;;18.08;10.40;;;;;;;;;;5094162;28;20431;-60
2023/01/21 13:36:45;;;;;;;14.88;9.32;;;;;;;;;;5095887;28;20032;-59
2023/01/21 13:39:22;;;;;;;20.67;9.77;;;;;;;;;;5096598;28;20023;-59
2023/01/21 13:41:56;;;;;;;21.63;9.80;;;;;;;;;;5096412;28;20019;-58
2023/01/21 13:44:57;;;;;;;14.90;9.10;;;;;;;;;;5093760;28;20019;-57
2023/01/21 13:47:28;;;;;;;20.52;9.20;;;;;;;;;;5015513;28;20057;-58
2023/01/21 13:50:16;;;;;;;13.93;8.40;;;;;;;;;;5078672;28;20179;-60
2023/01/21 13:52:41;;;;;;;15.93;9.40;;;;;;;;;;5094957;28;20016;-58
2023/01/21 13:55:35;;;;;;;18.48;9.85;;;;;;;;;;5095375;28;20026;-58
2023/01/21 13:58:05;;;;;;;15.68;8.32;;;;;;;;;;5093521;28;20028;-57
2023/01/21 14:00:34;;;;;;;13.07;8.43;;;;;;;;;;5093869;28;20388;-57
2023/01/21 14:03:07;;;;;;;16.67;9.10;;;;;;;;;;5092566;28;20059;-58
2023/01/21 14:05:42;;;;;;;14.68;8.82;;;;;;;;;;5094671;28;20375;-59
2023/01/21 14:08:07;;;;;;;;;;;;;;;;;;5093763;28;20096;-59
2023/01/21 14:10:35;;;;;;;17.20;8.57;;;;;;;;;;5093152;28;19998;-58
2023/01/21 14:13:27;;;;;;;16.88;9.02;;;;;;;;;;5093302;28;20047;-55
2023/01/21 14:16:12;;;;;;;18.35;9.43;;;;;;;;;;5062051;28;20028;-58
2023/01/21 14:18:57;;;;;;;16.15;9.85;;;;;;;;;;5093825;28;20055;-57
2023/01/21 14:21:45;;;;;;;19.55;8.23;;;;;;;;;;5092875;28;20213;-57
2023/01/21 14:24:11;;;;;;;16.40;8.45;;;;;;;;;;5085026;28;20039;-56
2023/01/21 14:26:55;;;;;;;14.88;8.52;;;;;;;;;;5093660;28;20020;-59
2023/01/21 14:29:33;;;;;;;19.73;9.68;;;;;;;;;;5093930;28;20038;-64
2023/01/21 14:32:04;;;;;;;15.93;9.77;;;;;;;;;;5094115;28;20016;-59
2023/01/21 14:34:40;;;;;;;17.52;8.50;;;;;;;;;;5092513;28;20031;-58